Mancos, CO (81328)

7:28 AM MST on February 13, 2016 (GMT -0700)
East Canyon | | Change Station
CLOSE
Current Station
Personal Weather Station
Location: Mancos, CO
Elevation: 7550 ft
Nearby Weather Stations

Elev 7550 ft 37.30 °N, 108.23 °W | Updated 7 minutes ago

Clear
Clear
30.0 °F
Feels Like 30 °F
N
0.0
Wind Variable Wind from ENE
Gusts 1.0 mph

Today
High -- | Low -- °F
--% Chance of Precip.
Yesterday
High -- | Low -- °F
Precip. -- in
Pressure 30.35 in
Visibility 10.0 miles
Clouds Clear
Windchill 30 °F
Dew Point 14 °F
Humidity 52%
Rainfall 0.00 in
Snow Depth Not available.
7:05 AM 5:50 PM
Waxing Crescent, 31% visible
METAR KCEZ 131353Z AUTO 08005KT 10SM CLR M06/M08 A3031 RMK AO2 SLP278 T10611083
Pressure 30.35 in
Visibility 10.0 miles
Clouds Clear
Windchill 30 °F
Dew Point 14 °F
Humidity 52%
Rainfall 0.00 in
Snow Depth Not available.
7:05 AM 5:50 PM
Waxing Crescent, 31% visible
METAR KCEZ 131353Z AUTO 08005KT 10SM CLR M06/M08 A3031 RMK AO2 SLP278 T10611083

10-Day Weather Forecast

Almanac

Astronomy

Feb. 13, 2016 Rise Set
Actual Time
Civil Twilight
Nautical Twilight
Astronomical Twilight
Moon
Length of Visible Light
Length of Day
Tomorrow will be .
, % of the Moon is Illuminated

Today's Extremes

State Highs State Lows

Community

WunderPhotos

Upload Photos

1,892,558 photos uploaded!

WunderBlog® & News

Nearby

Air Quality

  Air Quality AQ Index Pollutant
Not available.

Snow Depth

Station Depth Elevation

Earthquake Activity

City Distance Mag. Time & Date
Minimum magnitude displayed is 2.5.

Coastal Water Temperatures

Place Temperature

Stations

Nearby Weather Stations

Station Location Temp. Windchill Dew Point Humidity Wind Precip. Elev Updated Type
                   

Watches & Warnings

There are currently no watches in effect.